Regen radar Meer informatie rain snow radar


Bezoek ook deze websites:

Template documentation
and downloads

And another site



METAR rapporten vliegvelden

Warning: A non-numeric value encountered in /customers/a/f/b/meteoassenede.be/httpd.www/weather28/metar/metarDisplay.php on line 166 Warning: A non-numeric value encountered in /customers/a/f/b/meteoassenede.be/httpd.www/weather28/metar/metarDisplay.php on line 166 Warning: A non-numeric value encountered in /customers/a/f/b/meteoassenede.be/httpd.www/weather28/metar/metarDisplay.php on line 166 Warning: A non-numeric value encountered in /customers/a/f/b/meteoassenede.be/httpd.www/weather28/metar/metarDisplay.php on line 166 Warning: A non-numeric value encountered in /customers/a/f/b/meteoassenede.be/httpd.www/weather28/metar/metarDisplay.php on line 166
   
EBBR - Brussels International Airport, Belgium
Afstand tot: W 14 km
Gewijzigd: 22-09-2021 22:20
Helder  
Helder  
   Wind: varieert 2 km/h
Wind: varieert 2 km/h
Temperatuur: 11°C
Dauwpunt: 8°C
Vochtigheid: 82%
Barometer: 1025 hPa
Zicht: meer dan 10 km
Bewolking: Helder
EBBR 222020Z VRB01KT CAVOK 11/08 Q1025 NOSIG
EBBE - Beauvechain (Bevekom), Belgium
Afstand tot: ZZO 17 km
Gewijzigd: 22-09-2021 10:55
Verouderd
Helder  
Helder  
   Wind: varieert Kalm
Wind: varieert Kalm
Temperatuur: 15°C
Dauwpunt: 8°C
Vochtigheid: 63%
Barometer: 1030 hPa
Bewolking: Helder
Zicht: meer dan 10 km
Bewolking: Helder
EBBE 220855Z AUTO //////KT 9999 NCD 15/08 Q1030 BLU
EBDT - Schaffen, Belgium
Afstand tot: ONO 29 km
Gewijzigd: 22-09-2021 10:55
Verouderd
Licht bewolkt  
Licht bewolkt  
   Wind: varieert Kalm
Wind: varieert Kalm
Temperatuur: 13°C
Dauwpunt: 9°C
Vochtigheid: 77%
Barometer: 1030 hPa
Bewolking: Licht bewolkt
Zicht: meer dan 10 km
Bewolking: Licht bewolkt 25000 ft
EBDT 220855Z AUTO //////KT 9999 FEW250/// 13/09 Q1030 BLU
EBAW - Antwerp/Deurne, Belgium
Afstand tot: NNW 38 km
Gewijzigd: 22-09-2021 22:20
Helder  
Helder  
   Wind: ZZO 4 km/h
Wind: ZZO 4 km/h
Temperatuur: 10°C
Dauwpunt: 8°C
Vochtigheid: 88%
Barometer: 1025 hPa
Zicht: meer dan 10 km
Bewolking: Helder
EBAW 222020Z 15002KT CAVOK 10/08 Q1025 NOSIG
EBCI - Charleroi/Gosselies, Belgium
Afstand tot: ZZW 51 km
Gewijzigd: 22-09-2021 22:20
Helder  
Helder  
   Wind: Zuiden 4 km/h
Wind: Zuiden 4 km/h
Temperatuur: 13°C
Dauwpunt: 10°C
Vochtigheid: 82%
Barometer: 1025 hPa
Zicht: meer dan 10 km
Bewolking: Helder
EBCI 222020Z 18002KT CAVOK 13/10 Q1025 NOSIG
EBLG - Bierset/Liege, Belgium
Afstand tot: OZO 60 km
Gewijzigd: 22-09-2021 22:20
Helder  
Helder  
   Wind: Kalm
Wind: Kalm
Temperatuur: 15°C
Dauwpunt: 9°C
Vochtigheid: 68%
Barometer: 1026 hPa
Zicht: meer dan 10 km
Bewolking: Helder
EBLG 222020Z 00000KT CAVOK 15/09 Q1026 NOSIG

Script ontwikkeld door  Saratoga-weather.org Aangepast voor de template door  Weerstation Leuven

U vindt ons ook hier:

Het Weer Aktueel

UK Metoffice

WeatherCloud

Weather Underground

Benelux Weer Netwerk

AWEKAS

Apparatuur in gebruik:

Weerstation
Davis Vantage Pro2

Weerprogramma
Meteobridge

Weercomputer
TP-Link TL-MR3020

Webleverancier
One.com

Davis Vantage Pro2

Meteobridge

TP-Link TL-MR3020

One.com